Time;durP1;ratioP1;P1;durP2;ratioP2;P2;SDS_P1;SDS_P2;PMS_P1;PMS_P2;Temp;Humidity;BMP_temperature;BMP_pressure;BME280_temperature;BME280_humidity;BME280_pressure;Samples;Min_cycle;Max_cycle;Signal;HPM_P1;HPM_P2
2023/10/17 00:01:17;;;;;;;8.25;2.10;;;;;;;;;;5000605;28;20603;-64
2023/10/17 00:03:45;;;;;;;7.40;2.10;;;;;;;;;;4985243;28;20390;-65
2023/10/17 00:06:22;;;;;;;9.52;2.60;;;;;;;;;;4986321;28;20046;-63
2023/10/17 00:08:52;;;;;;;8.18;2.28;;;;;;;;;;5009779;28;20050;-67
2023/10/17 00:11:21;;;;;;;7.90;2.60;;;;;;;;;;5008939;28;20033;-66
2023/10/17 00:14:01;;;;;;;8.70;2.00;;;;;;;;;;4996188;28;20556;-66
2023/10/17 00:16:30;;;;;;;7.55;2.10;;;;;;;;;;4987950;28;20508;-64
2023/10/17 00:19:04;;;;;;;8.07;2.30;;;;;;;;;;4986563;28;20089;-65
2023/10/17 00:21:32;;;;;;;12.15;2.70;;;;;;;;;;4984538;28;20168;-64
2023/10/17 00:24:08;;;;;;;14.32;2.50;;;;;;;;;;4986490;28;20516;-67
2023/10/17 00:26:36;;;;;;;11.90;2.25;;;;;;;;;;4985757;28;20048;-65
2023/10/17 00:29:05;;;;;;;9.52;2.40;;;;;;;;;;4986053;28;20084;-65
2023/10/17 00:31:38;;;;;;;6.97;2.30;;;;;;;;;;4986185;28;20057;-67
2023/10/17 00:34:17;;;;;;;10.23;2.50;;;;;;;;;;4990809;28;20050;-65
2023/10/17 00:39:49;;;;;;;8.27;2.53;;;;;;;;;;4987923;28;20477;-65
2023/10/17 00:42:34;;;;;;;7.47;2.17;;;;;;;;;;4985643;28;20049;-63
2023/10/17 00:45:01;;;;;;;13.15;2.90;;;;;;;;;;4990677;28;20042;-65
2023/10/17 00:47:27;;;;;;;9.35;2.67;;;;;;;;;;4990107;28;20142;-62
2023/10/17 00:49:55;;;;;;;7.00;2.38;;;;;;;;;;5004447;28;20483;-63
2023/10/17 00:52:34;;;;;;;10.23;2.53;;;;;;;;;;4997443;28;20092;-65
2023/10/17 00:55:03;;;;;;;5.93;2.33;;;;;;;;;;4989843;28;20404;-65
2023/10/17 00:57:30;;;;;;;9.27;2.63;;;;;;;;;;4989214;28;21355;-63
2023/10/17 00:59:57;;;;;;;6.88;2.25;;;;;;;;;;4988690;28;21369;-65
2023/10/17 01:02:29;;;;;;;6.80;2.90;;;;;;;;;;4988453;28;20709;-66
2023/10/17 01:05:00;;;;;;;9.45;2.97;;;;;;;;;;4989975;28;20061;-65
2023/10/17 01:07:29;;;;;;;13.65;3.08;;;;;;;;;;4990120;28;20198;-64
2023/10/17 01:10:00;;;;;;;16.40;2.67;;;;;;;;;;4989901;28;20058;-67
2023/10/17 01:12:28;;;;;;;6.60;2.83;;;;;;;;;;4987954;28;20536;-69
2023/10/17 01:14:55;;;;;;;9.65;2.67;;;;;;;;;;4990499;28;20050;-67
2023/10/17 01:17:26;;;;;;;10.40;3.15;;;;;;;;;;4990630;28;20770;-68
2023/10/17 01:20:07;;;;;;;7.13;3.13;;;;;;;;;;4991118;28;20064;-66
2023/10/17 01:22:35;;;;;;;6.47;3.22;;;;;;;;;;5003749;28;20046;-67
2023/10/17 01:25:17;;;;;;;11.32;3.28;;;;;;;;;;5003151;28;20042;-65
2023/10/17 01:27:44;;;;;;;8.40;3.42;;;;;;;;;;4990751;28;20054;-65
2023/10/17 01:30:11;;;;;;;16.63;4.63;;;;;;;;;;4990696;28;20058;-65
2023/10/17 01:32:38;;;;;;;7.82;3.30;;;;;;;;;;4989135;28;20124;-65
2023/10/17 01:35:07;;;;;;;10.60;3.20;;;;;;;;;;4991315;28;20037;-64
2023/10/17 01:37:36;;;;;;;8.82;3.63;;;;;;;;;;4989686;28;20205;-65
2023/10/17 01:40:10;;;;;;;12.07;3.95;;;;;;;;;;4990066;28;20699;-64
2023/10/17 01:42:39;;;;;;;8.73;3.05;;;;;;;;;;4988537;28;20042;-64
2023/10/17 01:45:13;;;;;;;7.40;3.20;;;;;;;;;;4989453;28;20117;-64
2023/10/17 01:47:40;;;;;;;7.18;3.15;;;;;;;;;;4988523;28;20065;-64
2023/10/17 01:50:10;;;;;;;10.55;3.65;;;;;;;;;;4989046;28;20049;-64
2023/10/17 01:52:42;;;;;;;8.35;2.83;;;;;;;;;;4987638;28;20065;-65
2023/10/17 01:55:13;;;;;;;10.45;3.60;;;;;;;;;;4989975;28;20551;-61
2023/10/17 01:57:44;;;;;;;10.40;4.70;;;;;;;;;;4988593;28;20819;-66
2023/10/17 02:00:45;;;;;;;11.25;3.22;;;;;;;;;;4989324;28;20561;-65
2023/10/17 02:03:05;;;;;;;8.23;2.90;;;;;;;;;;5010880;28;20045;-65
2023/10/17 02:05:35;;;;;;;9.73;3.53;;;;;;;;;;5011030;28;20037;-63
2023/10/17 02:08:01;;;;;;;11.82;3.63;;;;;;;;;;5012818;28;20128;-63
2023/10/17 02:10:29;;;;;;;7.28;3.20;;;;;;;;;;5011440;28;20037;-63
2023/10/17 02:12:56;;;;;;;13.38;4.53;;;;;;;;;;5012112;28;20052;-66
2023/10/17 02:15:26;;;;;;;10.18;4.07;;;;;;;;;;5009488;28;20069;-65
2023/10/17 02:17:57;;;;;;;10.13;4.03;;;;;;;;;;5012030;28;20124;-67
2023/10/17 02:20:30;;;;;;;9.95;3.50;;;;;;;;;;5009808;28;20108;-68
2023/10/17 02:23:09;;;;;;;8.77;3.22;;;;;;;;;;5011257;28;20144;-66
2023/10/17 02:25:37;;;;;;;9.90;3.58;;;;;;;;;;5010259;28;20052;-66
2023/10/17 02:28:04;;;;;;;11.60;3.38;;;;;;;;;;5012107;28;20041;-66
2023/10/17 02:30:30;;;;;;;11.82;3.38;;;;;;;;;;5010822;28;20079;-66
2023/10/17 02:32:57;;;;;;;10.13;3.95;;;;;;;;;;5013034;28;20056;-66
2023/10/17 02:35:47;;;;;;;9.23;3.25;;;;;;;;;;5012697;28;20057;-67
2023/10/17 02:38:11;;;;;;;9.20;3.20;;;;;;;;;;5009753;28;20116;-67
2023/10/17 02:40:40;;;;;;;10.60;3.28;;;;;;;;;;5009818;28;20045;-66
2023/10/17 02:43:11;;;;;;;8.20;2.85;;;;;;;;;;5011272;28;20049;-66
2023/10/17 02:45:41;;;;;;;13.32;3.53;;;;;;;;;;5013908;28;20110;-65
2023/10/17 02:48:26;;;;;;;6.40;2.90;;;;;;;;;;5011787;28;20582;-66
2023/10/17 02:51:03;;;;;;;8.40;2.90;;;;;;;;;;5010632;28;20464;-66
2023/10/17 02:53:31;;;;;;;7.97;2.83;;;;;;;;;;5002937;28;20646;-65
2023/10/17 02:55:58;;;;;;;7.93;3.10;;;;;;;;;;5011895;28;20144;-64
2023/10/17 02:58:25;;;;;;;11.70;3.20;;;;;;;;;;5008292;28;20592;-62
2023/10/17 03:00:51;;;;;;;8.40;2.67;;;;;;;;;;5016118;28;20052;-64
2023/10/17 03:03:19;;;;;;;13.18;2.95;;;;;;;;;;5011640;28;20037;-65
2023/10/17 03:05:50;;;;;;;7.53;2.90;;;;;;;;;;5011520;28;20044;-66
2023/10/17 03:08:18;;;;;;;12.27;2.88;;;;;;;;;;5011031;28;20519;-66
2023/10/17 03:10:46;;;;;;;10.38;3.47;;;;;;;;;;5008093;28;20306;-65
2023/10/17 03:13:39;;;;;;;9.75;3.15;;;;;;;;;;5008243;28;20045;-65
2023/10/17 03:18:51;;;;;;;7.68;2.40;;;;;;;;;;5009862;28;20040;-65
2023/10/17 03:21:20;;;;;;;9.00;2.25;;;;;;;;;;5000675;28;20046;-65
2023/10/17 03:23:48;;;;;;;8.85;2.20;;;;;;;;;;5010219;28;20441;-65
2023/10/17 03:26:17;;;;;;;6.85;2.42;;;;;;;;;;5009959;28;20038;-65
2023/10/17 03:28:45;;;;;;;7.63;2.35;;;;;;;;;;4996005;28;21382;-65
2023/10/17 03:31:20;;;;;;;6.97;2.25;;;;;;;;;;4986614;28;20402;-66
2023/10/17 03:33:51;;;;;;;7.88;2.42;;;;;;;;;;4986543;28;20066;-66
2023/10/17 03:39:18;;;;;;;7.82;2.80;;;;;;;;;;4986929;28;20045;-67
2023/10/17 03:41:45;;;;;;;10.52;2.60;;;;;;;;;;4986149;28;20033;-65
2023/10/17 03:44:15;;;;;;;8.43;2.30;;;;;;;;;;4986182;28;20038;-66
2023/10/17 03:46:48;;;;;;;8.73;2.85;;;;;;;;;;4987312;28;20092;-66
2023/10/17 03:49:18;;;;;;;9.52;2.50;;;;;;;;;;4989399;28;20052;-68
2023/10/17 03:52:01;;;;;;;8.52;2.35;;;;;;;;;;4985285;28;20047;-65
2023/10/17 03:54:29;;;;;;;7.68;2.45;;;;;;;;;;4987554;28;20048;-65
2023/10/17 03:57:05;;;;;;;7.20;2.28;;;;;;;;;;4988609;28;20121;-64
2023/10/17 03:59:41;;;;;;;7.00;2.33;;;;;;;;;;4987617;28;20062;-66
2023/10/17 04:02:31;;;;;;;8.65;2.47;;;;;;;;;;5003290;28;20599;-64
2023/10/17 04:04:55;;;;;;;7.65;2.35;;;;;;;;;;4990170;28;20076;-64
2023/10/17 04:07:24;;;;;;;7.25;1.95;;;;;;;;;;4990618;28;20034;-66
2023/10/17 04:12:31;;;;;;;7.15;2.15;;;;;;;;;;4996811;28;20048;-64
2023/10/17 04:14:59;;;;;;;5.07;1.63;;;;;;;;;;5006312;28;20046;-64
2023/10/17 04:17:31;;;;;;;8.93;2.00;;;;;;;;;;4995217;28;20553;-66
2023/10/17 04:20:11;;;;;;;6.95;2.13;;;;;;;;;;4993443;28;20072;-65
2023/10/17 04:22:38;;;;;;;8.32;1.90;;;;;;;;;;4989820;28;20047;-65
2023/10/17 04:25:23;;;;;;;8.85;1.90;;;;;;;;;;4990236;28;20515;-65
2023/10/17 04:27:59;;;;;;;4.65;1.95;;;;;;;;;;5007249;28;20050;-64
2023/10/17 04:30:29;;;;;;;8.60;2.27;;;;;;;;;;4987883;28;20054;-65
2023/10/17 04:33:12;;;;;;;6.78;2.30;;;;;;;;;;4991197;28;20075;-64
2023/10/17 04:35:46;;;;;;;8.38;2.50;;;;;;;;;;4989492;28;20038;-64
2023/10/17 04:43:54;;;;;;;8.05;2.47;;;;;;;;;;4988974;28;20049;-65
2023/10/17 04:46:25;;;;;;;5.38;2.17;;;;;;;;;;4990304;28;20054;-66
2023/10/17 04:48:55;;;;;;;7.57;2.00;;;;;;;;;;4990320;28;20061;-65
2023/10/17 04:51:26;;;;;;;9.32;2.20;;;;;;;;;;4990426;28;20176;-67
2023/10/17 04:53:55;;;;;;;6.85;1.77;;;;;;;;;;5012949;28;20052;-65
2023/10/17 04:56:37;;;;;;;5.28;1.95;;;;;;;;;;5013469;28;20083;-66
2023/10/17 04:59:08;;;;;;;5.65;1.80;;;;;;;;;;5013049;28;20052;-67
2023/10/17 05:04:18;;;;;;;5.80;1.83;;;;;;;;;;5013358;28;21435;-66
2023/10/17 05:07:14;;;;;;;5.90;1.88;;;;;;;;;;5012346;28;20563;-65
2023/10/17 06:18:08;;;;;;;2.95;0.82;;;;;;;;;;5003620;28;20530;-66
2023/10/17 06:21:06;;;;;;;4.72;0.70;;;;;;;;;;4987425;28;20781;-65
2023/10/17 06:34:16;;;;;;;3.08;0.93;;;;;;;;;;4987379;28;20042;-66
2023/10/17 06:36:43;;;;;;;3.33;0.80;;;;;;;;;;4987109;28;20103;-65
2023/10/17 06:39:17;;;;;;;3.10;0.90;;;;;;;;;;4987457;28;20188;-66
2023/10/17 06:41:45;;;;;;;2.97;0.90;;;;;;;;;;5000167;28;20033;-66
2023/10/17 06:44:16;;;;;;;3.10;1.00;;;;;;;;;;4987023;28;20429;-64
2023/10/17 06:46:55;;;;;;;2.78;0.80;;;;;;;;;;4986681;28;20558;-65
2023/10/17 06:54:54;;;;;;;2.95;0.90;;;;;;;;;;5009193;28;20034;-65
2023/10/17 06:57:23;;;;;;;2.90;0.77;;;;;;;;;;5011233;28;20056;-66
2023/10/17 06:59:54;;;;;;;2.03;0.60;;;;;;;;;;5010147;28;20037;-65
2023/10/17 07:02:41;;;;;;;1.92;0.60;;;;;;;;;;4991780;28;20658;-66
2023/10/17 07:05:09;;;;;;;3.90;0.70;;;;;;;;;;4986745;28;20042;-66
2023/10/17 07:07:45;;;;;;;2.67;0.70;;;;;;;;;;4986796;28;20463;-66
2023/10/17 07:10:58;;;;;;;2.40;0.45;;;;;;;;;;4987270;28;20400;-65
2023/10/17 07:13:23;;;;;;;2.50;0.52;;;;;;;;;;4988348;28;20451;-66
2023/10/17 07:15:53;;;;;;;2.30;0.50;;;;;;;;;;4986357;28;20050;-68
2023/10/17 07:23:45;;;;;;;2.55;0.75;;;;;;;;;;4986895;28;20030;-65
2023/10/17 07:26:35;;;;;;;2.17;0.60;;;;;;;;;;4988680;28;20072;-66
2023/10/17 07:29:05;;;;;;;1.40;0.43;;;;;;;;;;5009591;28;20057;-65
2023/10/17 07:31:33;;;;;;;3.72;0.70;;;;;;;;;;4987562;28;20484;-65
2023/10/17 07:34:33;;;;;;;2.42;0.60;;;;;;;;;;4986905;28;20037;-66
2023/10/17 07:36:58;;;;;;;3.10;0.80;;;;;;;;;;5008298;28;20658;-66
2023/10/17 07:39:29;;;;;;;2.92;0.70;;;;;;;;;;5010228;28;20044;-65
2023/10/17 07:41:56;;;;;;;4.30;0.75;;;;;;;;;;5012651;28;20139;-65
2023/10/17 07:44:25;;;;;;;2.70;0.70;;;;;;;;;;5014039;28;20176;-70
2023/10/17 07:49:35;;;;;;;2.17;0.65;;;;;;;;;;5014910;28;20506;-65
2023/10/17 07:52:17;;;;;;;1.90;0.70;;;;;;;;;;5013517;28;20045;-65
2023/10/17 07:55:17;;;;;;;2.42;0.75;;;;;;;;;;4990806;28;20147;-66
2023/10/17 07:57:46;;;;;;;3.05;0.90;;;;;;;;;;4989408;28;20030;-66
2023/10/17 08:03:27;;;;;;;5.03;0.80;;;;;;;;;;5013135;28;20620;-65
2023/10/17 08:08:34;;;;;;;2.92;0.70;;;;;;;;;;4989964;28;20049;-64
2023/10/17 08:11:51;;;;;;;2.45;0.70;;;;;;;;;;4990219;28;20046;-66
2023/10/17 08:13:48;;;;;;;3.00;0.80;;;;;;;;;;4991908;28;20042;-65
2023/10/17 08:19:21;;;;;;;3.45;0.80;;;;;;;;;;4992907;28;20113;-67
2023/10/17 08:24:26;;;;;;;3.30;0.77;;;;;;;;;;5013999;28;20121;-65
2023/10/17 08:29:41;;;;;;;4.03;0.75;;;;;;;;;;5012372;28;20056;-64
2023/10/17 08:34:47;;;;;;;2.38;0.82;;;;;;;;;;5012998;28;20856;-69
2023/10/17 08:37:24;;;;;;;2.40;0.70;;;;;;;;;;5014738;28;20760;-63
2023/10/17 08:39:52;;;;;;;3.80;0.70;;;;;;;;;;5013935;28;20095;-64
2023/10/17 08:42:30;;;;;;;2.83;0.82;;;;;;;;;;5013384;28;20028;-67
2023/10/17 08:45:04;;;;;;;3.50;0.90;;;;;;;;;;5009026;28;20057;-67
2023/10/17 08:47:32;;;;;;;5.32;0.93;;;;;;;;;;5008157;28;20033;-66
2023/10/17 08:50:05;;;;;;;2.70;0.80;;;;;;;;;;5002344;28;20532;-65
2023/10/17 08:52:40;;;;;;;2.42;0.80;;;;;;;;;;4981272;28;20038;-67
2023/10/17 08:55:07;;;;;;;2.28;0.70;;;;;;;;;;5017897;28;20065;-67
2023/10/17 08:57:33;;;;;;;2.58;0.60;;;;;;;;;;4990852;28;20057;-67
2023/10/17 09:02:48;;;;;;;2.42;0.73;;;;;;;;;;4990304;28;20043;-65
2023/10/17 09:05:19;;;;;;;3.50;0.90;;;;;;;;;;5005677;28;20046;-64
2023/10/17 09:07:55;;;;;;;3.75;0.77;;;;;;;;;;4990251;28;20635;-65
2023/10/17 09:10:36;;;;;;;4.47;0.65;;;;;;;;;;4989662;28;20046;-66
2023/10/17 09:15:59;;;;;;;6.00;0.70;;;;;;;;;;4991030;28;20119;-65
2023/10/17 09:18:31;;;;;;;3.25;0.70;;;;;;;;;;4982119;28;20528;-65
2023/10/17 09:21:03;;;;;;;2.80;0.70;;;;;;;;;;5020279;28;20455;-64
2023/10/17 09:23:30;;;;;;;1.85;0.60;;;;;;;;;;4988882;28;20109;-63
2023/10/17 09:25:58;;;;;;;5.05;0.90;;;;;;;;;;4989585;28;20037;-64
2023/10/17 09:28:25;;;;;;;3.20;0.90;;;;;;;;;;4980087;28;20526;-64
2023/10/17 09:30:58;;;;;;;2.63;0.70;;;;;;;;;;5017718;28;20037;-65
2023/10/17 09:33:30;;;;;;;2.22;0.77;;;;;;;;;;5008395;28;20037;-64
2023/10/17 09:36:02;;;;;;;2.20;0.60;;;;;;;;;;4991381;28;20096;-66
2023/10/17 09:38:29;;;;;;;4.15;0.80;;;;;;;;;;4991365;28;20038;-66
2023/10/17 09:40:59;;;;;;;3.53;0.68;;;;;;;;;;4993229;28;20034;-64
2023/10/17 09:43:26;;;;;;;2.70;0.75;;;;;;;;;;4989420;28;20050;-65
2023/10/17 09:45:53;;;;;;;2.83;0.70;;;;;;;;;;4990278;28;20038;-65
2023/10/17 09:48:23;;;;;;;1.83;0.73;;;;;;;;;;4988897;28;20111;-65
2023/10/17 09:50:52;;;;;;;2.03;0.60;;;;;;;;;;5002065;28;20041;-65
2023/10/17 09:53:22;;;;;;;2.33;0.70;;;;;;;;;;4989132;28;20164;-64
2023/10/17 09:55:50;;;;;;;2.30;0.60;;;;;;;;;;5011235;28;20400;-63
2023/10/17 09:58:21;;;;;;;1.35;0.50;;;;;;;;;;4991856;28;20030;-65
2023/10/17 10:00:55;;;;;;;3.40;0.60;;;;;;;;;;4987584;28;20483;-65
2023/10/17 10:03:24;;;;;;;1.17;0.50;;;;;;;;;;5002251;28;20042;-65
2023/10/17 10:05:55;;;;;;;2.78;0.60;;;;;;;;;;4988273;28;20586;-70
2023/10/17 10:08:34;;;;;;;1.83;0.60;;;;;;;;;;4987466;28;20056;-64
2023/10/17 10:11:05;;;;;;;2.45;0.60;;;;;;;;;;4998058;28;20092;-64
2023/10/17 10:13:52;;;;;;;2.15;0.60;;;;;;;;;;5000313;28;20127;-68
2023/10/17 10:16:18;;;;;;;2.00;0.50;;;;;;;;;;4988585;28;20445;-65
2023/10/17 10:18:45;;;;;;;1.98;0.47;;;;;;;;;;5006200;28;20484;-64
2023/10/17 10:21:12;;;;;;;1.23;0.50;;;;;;;;;;5021680;28;20033;-64
2023/10/17 10:23:40;;;;;;;1.90;0.50;;;;;;;;;;5007977;28;20080;-65
2023/10/17 10:26:14;;;;;;;2.55;0.60;;;;;;;;;;5007694;28;20077;-65
2023/10/17 10:28:43;;;;;;;1.98;0.55;;;;;;;;;;5007477;28;20052;-66
2023/10/17 10:31:22;;;;;;;2.22;0.63;;;;;;;;;;5007835;28;20069;-66
2023/10/17 10:33:50;;;;;;;1.80;0.50;;;;;;;;;;4987382;28;20038;-65
2023/10/17 10:36:20;;;;;;;2.10;0.50;;;;;;;;;;4988102;28;20053;-65
2023/10/17 10:38:46;;;;;;;1.17;0.50;;;;;;;;;;5005805;28;20140;-66
2023/10/17 10:41:17;;;;;;;2.05;0.60;;;;;;;;;;4986598;28;20038;-66
2023/10/17 10:43:44;;;;;;;5.20;0.70;;;;;;;;;;4986630;28;20441;-65
2023/10/17 10:46:17;;;;;;;1.70;0.55;;;;;;;;;;4987590;28;20909;-66
2023/10/17 10:48:47;;;;;;;1.08;0.45;;;;;;;;;;4986815;28;20119;-65
2023/10/17 10:51:17;;;;;;;1.67;0.55;;;;;;;;;;4987484;28;20042;-65
2023/10/17 10:53:46;;;;;;;2.08;0.60;;;;;;;;;;4986306;28;20109;-67
2023/10/17 10:56:15;;;;;;;3.53;0.45;;;;;;;;;;4987802;28;20065;-66
2023/10/17 10:58:51;;;;;;;1.42;0.50;;;;;;;;;;4986755;28;20038;-66
2023/10/17 11:01:21;;;;;;;1.95;0.60;;;;;;;;;;4987419;28;20035;-65
2023/10/17 11:03:49;;;;;;;1.45;0.40;;;;;;;;;;5019121;28;20048;-66
2023/10/17 11:06:20;;;;;;;2.55;0.50;;;;;;;;;;5007282;28;20132;-69
2023/10/17 11:08:47;;;;;;;4.00;0.50;;;;;;;;;;4995861;28;20046;-66
2023/10/17 11:11:14;;;;;;;1.63;0.45;;;;;;;;;;4987219;28;20129;-66
2023/10/17 11:13:45;;;;;;;2.42;0.30;;;;;;;;;;5000855;28;20088;-65
2023/10/17 11:16:12;;;;;;;2.38;0.50;;;;;;;;;;4986912;28;20042;-65
2023/10/17 11:18:43;;;;;;;1.98;0.43;;;;;;;;;;4986870;28;20045;-65
2023/10/17 11:21:10;;;;;;;0.80;0.38;;;;;;;;;;4986896;28;20034;-66
2023/10/17 11:23:41;;;;;;;1.65;0.40;;;;;;;;;;4999876;28;20054;-64
2023/10/17 11:26:12;;;;;;;1.83;0.40;;;;;;;;;;4998212;28;20046;-64
2023/10/17 11:28:51;;;;;;;0.47;0.30;;;;;;;;;;4986366;28;20050;-64
2023/10/17 11:31:27;;;;;;;0.28;0.28;;;;;;;;;;4985429;28;20042;-64
2023/10/17 11:34:22;;;;;;;2.15;0.60;;;;;;;;;;4988272;28;20068;-65
2023/10/17 11:36:56;;;;;;;2.85;0.50;;;;;;;;;;4999325;28;20046;-64
2023/10/17 11:39:26;;;;;;;1.98;0.57;;;;;;;;;;4985525;28;20081;-64
2023/10/17 11:41:53;;;;;;;5.50;0.60;;;;;;;;;;4986449;28;20046;-62
2023/10/17 11:44:23;;;;;;;2.97;0.50;;;;;;;;;;4986798;28;20034;-64
2023/10/17 11:47:02;;;;;;;3.95;0.63;;;;;;;;;;4987268;28;20463;-63
2023/10/17 11:49:33;;;;;;;2.88;0.55;;;;;;;;;;4999752;28;20078;-64
2023/10/17 11:52:09;;;;;;;2.70;0.73;;;;;;;;;;4986787;28;20082;-63
2023/10/17 11:54:55;;;;;;;3.28;0.60;;;;;;;;;;4985885;28;20068;-64
2023/10/17 11:57:25;;;;;;;2.95;0.57;;;;;;;;;;4986269;28;20056;-63
2023/10/17 11:59:55;;;;;;;3.55;0.50;;;;;;;;;;4985819;28;20046;-63
2023/10/17 12:02:22;;;;;;;2.47;0.68;;;;;;;;;;4985449;28;21545;-65
2023/10/17 12:04:48;;;;;;;2.55;0.60;;;;;;;;;;4986635;28;20040;-65
2023/10/17 12:07:15;;;;;;;2.95;0.65;;;;;;;;;;4985171;28;20060;-65
2023/10/17 12:09:42;;;;;;;3.63;0.57;;;;;;;;;;4988881;28;20045;-64
2023/10/17 12:12:09;;;;;;;1.70;0.50;;;;;;;;;;5002496;28;20120;-64
2023/10/17 12:14:35;;;;;;;2.63;0.50;;;;;;;;;;4985232;28;20123;-63
2023/10/17 12:17:03;;;;;;;3.05;0.70;;;;;;;;;;4986831;28;20064;-64
2023/10/17 12:19:31;;;;;;;2.78;0.70;;;;;;;;;;4985976;28;20506;-62
2023/10/17 12:22:01;;;;;;;2.85;0.70;;;;;;;;;;4984876;28;20038;-64
2023/10/17 12:24:37;;;;;;;3.05;0.70;;;;;;;;;;4985535;28;20048;-65
2023/10/17 12:27:12;;;;;;;2.63;0.80;;;;;;;;;;4985741;28;20046;-65
2023/10/17 12:29:43;;;;;;;6.05;0.82;;;;;;;;;;4988134;28;20569;-65
2023/10/17 12:32:13;;;;;;;3.38;0.70;;;;;;;;;;4990135;28;20049;-63
2023/10/17 12:34:40;;;;;;;2.92;0.70;;;;;;;;;;4990368;28;20061;-66
2023/10/17 12:39:34;;;;;;;;;;;;;;;;;;5080262;27;20322;-61
